createdAt,value
2023-05-11T00:00:18.441Z,100792.41
2023-05-11T00:05:20.737Z,100790.59
2023-05-11T00:10:22.987Z,100791.63
2023-05-11T00:15:25.201Z,100796.03
2023-05-11T00:20:27.419Z,100799.66
2023-05-11T00:25:29.421Z,100787.94
2023-05-11T00:30:31.390Z,100793.47
2023-05-11T00:35:33.464Z,100797.88
2023-05-11T00:40:35.559Z,100791.81
2023-05-11T00:45:37.894Z,100787.41
2023-05-11T00:50:39.890Z,100782.94
2023-05-11T00:55:42.352Z,100782.66
2023-05-11T01:00:44.911Z,100781.06
2023-05-11T01:06:08.308Z,100782.19
2023-05-11T01:11:28.467Z,100787.25
2023-05-11T01:16:35.287Z,100791.78
2023-05-11T01:21:39.875Z,100789.94
2023-05-11T01:27:14.531Z,100791.91
2023-05-11T01:32:21.115Z,100804.22
2023-05-11T01:37:24.105Z,100798.03
2023-05-11T01:42:32.421Z,100788.41
2023-05-11T01:47:37.661Z,100788.19
2023-05-11T01:52:41.375Z,100794.50
2023-05-11T01:57:45.447Z,100803.47
2023-05-11T02:02:50.067Z,100792.69
2023-05-11T02:07:54.677Z,100797.19
2023-05-11T02:12:57.051Z,100805.19
2023-05-11T02:17:59.900Z,100804.34
2023-05-11T02:23:03.269Z,100801.88
2023-05-11T02:28:06.338Z,100807.13
2023-05-11T02:33:11.557Z,100811.50
2023-05-11T02:38:16.223Z,100812.38
2023-05-11T02:43:29.769Z,100811.50
2023-05-11T02:48:40.188Z,100819.66
2023-05-11T02:53:44.011Z,100813.53
2023-05-11T02:58:46.040Z,100814.41
2023-05-11T03:03:48.047Z,100809.97
2023-05-11T03:08:50.464Z,100806.56
2023-05-11T03:13:53.273Z,100809.13
2023-05-11T03:18:56.255Z,100799.28
2023-05-11T03:23:59.734Z,100795.66
2023-05-11T03:29:03.524Z,100800.16
2023-05-11T03:34:05.734Z,100794.69
2023-05-11T03:39:09.714Z,100792.25
2023-05-11T03:44:13.610Z,100787.66
2023-05-11T03:49:16.383Z,100781.31
2023-05-11T03:54:18.661Z,100793.19
2023-05-11T03:59:21.221Z,100787.97
2023-05-11T04:04:30.049Z,100795.75
2023-05-11T04:09:32.549Z,100785.06
2023-05-11T04:14:34.562Z,100789.66
2023-05-11T04:19:36.641Z,100789.88
2023-05-11T04:24:39.215Z,100794.16
2023-05-11T04:29:41.084Z,100800.25
2023-05-11T04:34:43.139Z,100797.78
2023-05-11T04:39:45.159Z,100802.94
2023-05-11T04:44:47.216Z,100804.00
2023-05-11T04:49:49.150Z,100812.34
2023-05-11T04:54:51.046Z,100821.09
2023-05-11T04:59:53.054Z,100815.88
2023-05-11T05:04:55.013Z,100830.09
2023-05-11T05:09:57.072Z,100844.22
2023-05-11T05:14:59.131Z,100841.78
2023-05-11T05:20:01.238Z,100840.78
2023-05-11T05:25:03.258Z,100838.97
2023-05-11T05:30:05.808Z,100843.38
2023-05-11T05:35:08.099Z,100840.03
2023-05-11T05:40:10.551Z,100852.34
2023-05-11T05:45:14.749Z,100851.50
2023-05-11T05:50:17.448Z,100851.50
2023-05-11T05:55:19.885Z,100864.97
2023-05-11T06:00:21.918Z,100875.56
2023-05-11T06:05:24.214Z,100880.16
2023-05-11T06:10:26.303Z,100878.47
2023-05-11T06:15:28.373Z,100878.63
2023-05-11T06:20:32.414Z,100883.13
2023-05-11T06:25:35.707Z,100889.03
2023-05-11T06:30:37.692Z,100881.88
2023-05-11T06:35:39.922Z,100894.69
2023-05-11T06:40:41.961Z,100886.50
2023-05-11T06:45:47.112Z,100893.78
2023-05-11T06:50:49.519Z,100890.28
2023-05-11T06:55:52.135Z,100885.94
2023-05-11T07:00:54.492Z,100893.59
2023-05-11T07:05:56.522Z,100891.78
2023-05-11T07:10:58.743Z,100891.66
2023-05-11T07:16:01.046Z,100891.47
2023-05-11T07:21:03.132Z,100898.72
2023-05-11T07:26:09.426Z,100902.09
2023-05-11T07:31:11.555Z,100894.34
2023-05-11T07:36:13.580Z,100906.69
2023-05-11T07:41:15.741Z,100903.72
2023-05-11T07:46:17.767Z,100905.63
2023-05-11T07:51:19.701Z,100897.38
2023-05-11T07:56:21.659Z,100902.34
2023-05-11T08:01:24.096Z,100902.25
2023-05-11T08:06:26.179Z,100896.81
2023-05-11T08:11:28.852Z,100902.25
2023-05-11T08:16:30.852Z,100903.69
2023-05-11T08:21:33.336Z,100904.06
2023-05-11T08:26:35.478Z,100905.78
2023-05-11T08:31:37.713Z,100908.44
2023-05-11T08:36:39.696Z,100912.56
2023-05-11T08:41:42.146Z,100907.22
2023-05-11T08:46:47.503Z,100910.72
2023-05-11T08:51:49.751Z,100915.00
2023-05-11T08:56:52.134Z,100914.59
2023-05-11T09:01:54.890Z,100912.88
2023-05-11T09:06:57.881Z,100923.66
2023-05-11T09:11:59.925Z,100922.72
2023-05-11T09:17:03.365Z,100931.78
2023-05-11T09:22:07.134Z,100931.69
2023-05-11T09:27:09.967Z,100930.94
2023-05-11T09:32:12.063Z,100921.97
2023-05-11T09:37:19.021Z,100930.94
2023-05-11T09:42:23.873Z,100925.66
2023-05-11T09:47:27.771Z,100930.06
2023-05-11T09:52:29.859Z,100932.06
2023-05-11T09:57:32.143Z,100927.69
2023-05-11T10:02:34.713Z,100934.66
2023-05-11T10:07:38.134Z,100929.91
2023-05-11T10:12:40.670Z,100934.28
2023-05-11T10:17:46.703Z,100942.50
2023-05-11T10:22:51.026Z,100930.84
2023-05-11T10:27:53.813Z,100920.81
2023-05-11T10:32:55.887Z,100921.69
2023-05-11T10:37:58.718Z,100923.78
2023-05-11T10:43:09.865Z,100921.00
2023-05-11T10:48:38.022Z,100917.69
2023-05-11T10:54:18.106Z,100915.88
2023-05-11T10:59:44.647Z,100919.31
2023-05-11T11:04:51.823Z,100917.38
2023-05-11T11:09:56.340Z,100915.19
2023-05-11T11:15:03.071Z,100921.19
2023-05-11T11:20:08.975Z,100917.66
2023-05-11T11:25:12.839Z,100921.28
2023-05-11T11:30:19.917Z,100912.31
2023-05-11T11:35:44.170Z,100908.47
2023-05-11T11:40:53.121Z,100915.56
2023-05-11T11:46:02.380Z,100908.38
2023-05-11T11:51:12.313Z,100911.91
2023-05-11T11:56:14.309Z,100907.44
2023-05-11T12:01:20.718Z,100909.06
2023-05-11T12:06:28.895Z,100908.97
2023-05-11T12:11:31.180Z,100898.38
2023-05-11T12:16:33.584Z,100898.28
2023-05-11T12:21:35.557Z,100893.97
2023-05-11T12:26:37.424Z,100889.38
2023-05-11T12:31:41.153Z,100885.94
2023-05-11T12:36:44.297Z,100883.06
2023-05-11T12:41:48.171Z,100889.28
2023-05-11T12:46:50.881Z,100879.34
2023-05-11T12:52:08.213Z,100875.81
2023-05-11T12:57:27.490Z,100875.81
2023-05-11T13:02:29.626Z,100865.75
2023-05-11T13:07:31.686Z,100862.13
2023-05-11T13:12:34.878Z,100858.50
2023-05-11T13:17:38.114Z,100862.03
2023-05-11T13:22:40.058Z,100859.56
2023-05-11T13:27:42.112Z,100846.94
2023-05-11T13:32:44.092Z,100852.38
2023-05-11T13:37:47.237Z,100847.25
2023-05-11T13:42:49.052Z,100845.44
2023-05-11T13:47:50.904Z,100845.44
2023-05-11T13:52:53.977Z,100838.38
2023-05-11T13:57:56.815Z,100833.88
2023-05-11T14:02:58.972Z,100829.38
2023-05-11T14:08:01.066Z,100833.03
2023-05-11T14:13:03.043Z,100832.16
2023-05-11T14:18:05.594Z,100832.16
2023-05-11T14:23:07.522Z,100829.38
2023-05-11T14:28:09.707Z,100826.72
2023-05-11T14:33:11.565Z,100824.78
2023-05-11T14:38:13.401Z,100816.59
2023-05-11T14:43:15.319Z,100813.91
2023-05-11T14:48:17.211Z,100812.09
2023-05-11T14:53:19.112Z,100806.81
2023-05-11T14:58:21.255Z,100810.47
2023-05-11T15:03:24.381Z,100811.09
2023-05-11T15:08:30.269Z,100804.81
2023-05-11T15:13:32.725Z,100809.31
2023-05-11T15:18:34.718Z,100812.94
2023-05-11T15:23:36.580Z,100805.97
2023-05-11T15:28:38.458Z,100806.75
2023-05-11T15:33:40.350Z,100796.97
2023-05-11T15:38:43.388Z,100801.38
2023-05-11T15:43:45.206Z,100810.34
2023-05-11T15:48:47.131Z,100804.25
2023-05-11T15:53:49.124Z,100805.97
2023-05-11T15:58:50.955Z,100798.81
2023-05-11T16:03:53.032Z,100811.41
2023-05-11T16:08:55.406Z,100802.63
2023-05-11T16:13:57.609Z,100800.81
2023-05-11T16:19:01.517Z,100803.41
2023-05-11T16:24:03.485Z,100808.56
2023-05-11T16:29:06.210Z,100811.09
2023-05-11T16:34:08.435Z,100802.56
2023-05-11T16:39:10.658Z,100796.34
2023-05-11T16:44:12.580Z,100807.81
2023-05-11T16:49:14.379Z,100789.19
2023-05-11T16:54:16.650Z,100795.38
2023-05-11T16:59:18.481Z,100799.78
2023-05-11T17:04:20.998Z,100797.75
2023-05-11T17:09:23.405Z,100803.75
2023-05-11T17:14:25.402Z,100804.81
2023-05-11T17:19:27.482Z,100812.75
2023-05-11T17:24:29.459Z,100815.50
2023-05-11T17:29:31.710Z,100810.47
2023-05-11T17:34:33.588Z,100808.59
2023-05-11T17:39:35.643Z,100810.31
2023-05-11T17:44:38.095Z,100806.88
2023-05-11T17:49:40.158Z,100812.22
2023-05-11T17:54:42.536Z,100815.03
2023-05-11T17:59:45.863Z,100821.00
2023-05-11T18:04:47.688Z,100822.81
2023-05-11T18:09:49.860Z,100831.81
2023-05-11T18:14:51.859Z,100823.81
2023-05-11T18:19:53.765Z,100833.44
2023-05-11T18:24:55.966Z,100829.31
2023-05-11T18:29:58.416Z,100835.53
2023-05-11T18:35:00.294Z,100836.28
2023-05-11T18:40:06.488Z,100838.31
2023-05-11T18:45:08.934Z,100844.06
2023-05-11T18:50:11.257Z,100849.41
2023-05-11T18:55:13.265Z,100848.25
2023-05-11T19:00:16.454Z,100843.75
2023-05-11T19:05:18.984Z,100858.19
2023-05-11T19:10:23.040Z,100863.63
2023-05-11T19:15:25.048Z,100863.53
2023-05-11T19:20:27.394Z,100861.72
2023-05-11T19:25:29.373Z,100868.28
2023-05-11T19:30:31.634Z,100874.47
2023-05-11T19:35:33.654Z,100875.34
2023-05-11T19:40:46.041Z,100887.84
2023-05-11T19:45:48.642Z,100887.75
2023-05-11T19:50:50.592Z,100890.34
2023-05-11T19:55:52.468Z,100895.59
2023-05-11T20:00:55.191Z,100900.06
2023-05-11T20:05:57.094Z,100903.81
2023-05-11T20:10:59.265Z,100898.38
2023-05-11T20:16:01.096Z,100908.22
2023-05-11T20:21:03.037Z,100915.34
2023-05-11T20:26:05.052Z,100912.66
2023-05-11T20:31:07.329Z,100910.13
2023-05-11T20:36:09.670Z,100902.84
2023-05-11T20:41:12.140Z,100911.91
2023-05-11T20:46:15.903Z,100908.22
2023-05-11T20:51:17.848Z,100909.81
2023-05-11T20:56:19.858Z,100907.44
2023-05-11T21:01:22.864Z,100911.72
2023-05-11T21:06:24.764Z,100907.31
2023-05-11T21:11:26.824Z,100911.06
2023-05-11T21:16:28.873Z,100913.66
2023-05-11T21:21:30.728Z,100910.13
2023-05-11T21:26:32.634Z,100913.44
2023-05-11T21:31:34.740Z,100914.50
2023-05-11T21:36:39.050Z,100918.13
2023-05-11T21:41:41.024Z,100915.66
2023-05-11T21:46:42.995Z,100915.94
2023-05-11T21:51:44.865Z,100917.38
2023-05-11T21:56:46.694Z,100918.78
2023-05-11T22:01:49.855Z,100913.44
2023-05-11T22:06:51.787Z,100915.47
2023-05-11T22:11:53.716Z,100918.03
2023-05-11T22:16:55.572Z,100909.16
2023-05-11T22:21:57.440Z,100914.59
2023-05-11T22:27:02.525Z,100917.25
2023-05-11T22:32:04.740Z,100922.06
2023-05-11T22:37:06.619Z,100915.47
2023-05-11T22:42:08.427Z,100913.72
2023-05-11T22:47:10.325Z,100912.03
2023-05-11T22:52:12.909Z,100912.13
2023-05-11T22:57:17.313Z,100914.72
2023-05-11T23:02:19.323Z,100914.72
2023-05-11T23:07:21.277Z,100914.72
2023-05-11T23:12:23.268Z,100905.81
2023-05-11T23:17:25.387Z,100916.50
2023-05-11T23:22:27.367Z,100911.34
2023-05-11T23:27:29.509Z,100901.44
2023-05-11T23:32:31.677Z,100899.69
2023-05-11T23:37:33.886Z,100892.44
2023-05-11T23:42:35.687Z,100891.66
2023-05-11T23:47:37.937Z,100892.44
2023-05-11T23:52:39.961Z,100878.13
2023-05-11T23:57:42.058Z,100880.97
